sensor_id;sensor_type;location;lat;lon;timestamp;P1;durP1;ratioP1;P2;durP2;ratioP2
80681;SDS011;70045;40.200;44.582;2023-12-14T00:02:07;70.53;;;22.73;;
80681;SDS011;70045;40.200;44.582;2023-12-14T00:04:36;77.40;;;24.25;;
80681;SDS011;70045;40.200;44.582;2023-12-14T00:07:02;71.60;;;23.85;;
80681;SDS011;70045;40.200;44.582;2023-12-14T00:09:27;81.43;;;23.88;;
80681;SDS011;70045;40.200;44.582;2023-12-14T00:11:52;68.95;;;22.27;;
80681;SDS011;70045;40.200;44.582;2023-12-14T00:14:18;68.97;;;21.70;;
80681;SDS011;70045;40.200;44.582;2023-12-14T00:16:46;70.22;;;21.63;;
80681;SDS011;70045;40.200;44.582;2023-12-14T00:19:11;69.63;;;20.92;;
80681;SDS011;70045;40.200;44.582;2023-12-14T00:21:37;68.95;;;22.77;;
80681;SDS011;70045;40.200;44.582;2023-12-14T00:24:02;73.10;;;21.00;;
80681;SDS011;70045;40.200;44.582;2023-12-14T00:26:28;69.47;;;21.02;;
80681;SDS011;70045;40.200;44.582;2023-12-14T00:28:56;70.40;;;22.20;;
80681;SDS011;70045;40.200;44.582;2023-12-14T00:31:21;65.43;;;19.65;;
80681;SDS011;70045;40.200;44.582;2023-12-14T00:33:47;56.08;;;18.35;;
80681;SDS011;70045;40.200;44.582;2023-12-14T00:36:18;64.13;;;19.15;;
80681;SDS011;70045;40.200;44.582;2023-12-14T00:38:45;60.08;;;19.08;;
80681;SDS011;70045;40.200;44.582;2023-12-14T00:41:13;54.00;;;18.42;;
80681;SDS011;70045;40.200;44.582;2023-12-14T00:43:38;52.03;;;18.48;;
80681;SDS011;70045;40.200;44.582;2023-12-14T00:46:04;60.88;;;19.33;;
80681;SDS011;70045;40.200;44.582;2023-12-14T00:48:29;58.80;;;19.17;;
80681;SDS011;70045;40.200;44.582;2023-12-14T00:50:55;59.25;;;18.55;;
80681;SDS011;70045;40.200;44.582;2023-12-14T00:53:23;56.70;;;16.67;;
80681;SDS011;70045;40.200;44.582;2023-12-14T00:55:48;52.42;;;16.33;;
80681;SDS011;70045;40.200;44.582;2023-12-14T00:58:14;47.58;;;15.52;;
80681;SDS011;70045;40.200;44.582;2023-12-14T01:00:39;45.10;;;16.25;;
80681;SDS011;70045;40.200;44.582;2023-12-14T01:03:04;52.08;;;16.85;;
80681;SDS011;70045;40.200;44.582;2023-12-14T01:05:33;53.38;;;17.77;;
80681;SDS011;70045;40.200;44.582;2023-12-14T01:07:58;55.38;;;17.15;;
80681;SDS011;70045;40.200;44.582;2023-12-14T01:10:23;47.95;;;16.02;;
80681;SDS011;70045;40.200;44.582;2023-12-14T01:12:49;44.45;;;15.75;;
80681;SDS011;70045;40.200;44.582;2023-12-14T01:15:14;52.15;;;17.00;;
80681;SDS011;70045;40.200;44.582;2023-12-14T01:17:43;42.65;;;14.77;;
80681;SDS011;70045;40.200;44.582;2023-12-14T01:20:08;44.20;;;15.88;;
80681;SDS011;70045;40.200;44.582;2023-12-14T01:22:34;43.88;;;14.55;;
80681;SDS011;70045;40.200;44.582;2023-12-14T01:24:59;39.70;;;14.98;;
80681;SDS011;70045;40.200;44.582;2023-12-14T01:27:25;39.35;;;14.30;;
80681;SDS011;70045;40.200;44.582;2023-12-14T01:29:53;35.45;;;13.60;;
80681;SDS011;70045;40.200;44.582;2023-12-14T01:32:19;35.08;;;14.23;;
80681;SDS011;70045;40.200;44.582;2023-12-14T01:34:44;36.25;;;13.68;;
80681;SDS011;70045;40.200;44.582;2023-12-14T01:37:09;37.13;;;14.35;;
80681;SDS011;70045;40.200;44.582;2023-12-14T01:39:35;37.28;;;14.02;;
80681;SDS011;70045;40.200;44.582;2023-12-14T01:42:04;30.48;;;11.77;;
80681;SDS011;70045;40.200;44.582;2023-12-14T01:44:30;35.25;;;11.82;;
80681;SDS011;70045;40.200;44.582;2023-12-14T01:46:55;31.50;;;10.88;;
80681;SDS011;70045;40.200;44.582;2023-12-14T01:49:20;32.30;;;12.75;;
80681;SDS011;70045;40.200;44.582;2023-12-14T01:51:46;31.83;;;11.48;;
80681;SDS011;70045;40.200;44.582;2023-12-14T01:54:16;28.83;;;10.50;;
80681;SDS011;70045;40.200;44.582;2023-12-14T01:56:42;35.28;;;12.73;;
80681;SDS011;70045;40.200;44.582;2023-12-14T01:59:07;30.13;;;10.75;;
80681;SDS011;70045;40.200;44.582;2023-12-14T02:04:08;30.70;;;12.73;;
80681;SDS011;70045;40.200;44.582;2023-12-14T02:06:37;29.50;;;11.90;;
80681;SDS011;70045;40.200;44.582;2023-12-14T02:09:03;34.88;;;12.90;;
80681;SDS011;70045;40.200;44.582;2023-12-14T02:11:28;34.20;;;12.48;;
80681;SDS011;70045;40.200;44.582;2023-12-14T02:13:54;43.97;;;14.95;;
80681;SDS011;70045;40.200;44.582;2023-12-14T02:16:19;37.47;;;13.65;;
80681;SDS011;70045;40.200;44.582;2023-12-14T02:18:48;38.53;;;13.43;;
80681;SDS011;70045;40.200;44.582;2023-12-14T02:21:13;41.30;;;15.65;;
80681;SDS011;70045;40.200;44.582;2023-12-14T02:23:43;41.00;;;14.85;;
80681;SDS011;70045;40.200;44.582;2023-12-14T02:28:34;44.30;;;13.83;;
80681;SDS011;70045;40.200;44.582;2023-12-14T02:31:02;52.75;;;15.93;;
80681;SDS011;70045;40.200;44.582;2023-12-14T02:33:28;45.20;;;14.20;;
80681;SDS011;70045;40.200;44.582;2023-12-14T02:35:53;42.50;;;15.63;;
80681;SDS011;70045;40.200;44.582;2023-12-14T02:38:19;42.90;;;15.35;;
80681;SDS011;70045;40.200;44.582;2023-12-14T02:40:44;38.53;;;14.55;;
80681;SDS011;70045;40.200;44.582;2023-12-14T02:43:13;41.65;;;14.52;;
80681;SDS011;70045;40.200;44.582;2023-12-14T02:45:38;38.70;;;14.45;;
80681;SDS011;70045;40.200;44.582;2023-12-14T02:48:04;43.63;;;15.15;;
80681;SDS011;70045;40.200;44.582;2023-12-14T02:50:29;41.80;;;14.32;;
80681;SDS011;70045;40.200;44.582;2023-12-14T02:52:55;44.47;;;15.65;;
80681;SDS011;70045;40.200;44.582;2023-12-14T02:55:23;47.05;;;14.35;;
80681;SDS011;70045;40.200;44.582;2023-12-14T02:57:48;38.50;;;14.95;;
80681;SDS011;70045;40.200;44.582;2023-12-14T03:00:14;45.10;;;15.73;;
80681;SDS011;70045;40.200;44.582;2023-12-14T03:02:39;47.10;;;16.80;;
80681;SDS011;70045;40.200;44.582;2023-12-14T03:05:05;45.13;;;15.63;;
80681;SDS011;70045;40.200;44.582;2023-12-14T03:07:33;47.53;;;16.00;;
80681;SDS011;70045;40.200;44.582;2023-12-14T03:09:59;45.35;;;15.98;;
80681;SDS011;70045;40.200;44.582;2023-12-14T03:12:24;43.25;;;15.07;;
80681;SDS011;70045;40.200;44.582;2023-12-14T03:14:50;50.42;;;17.67;;
80681;SDS011;70045;40.200;44.582;2023-12-14T03:17:15;53.03;;;18.50;;
80681;SDS011;70045;40.200;44.582;2023-12-14T03:19:43;55.80;;;18.13;;
80681;SDS011;70045;40.200;44.582;2023-12-14T03:22:09;49.92;;;15.85;;
80681;SDS011;70045;40.200;44.582;2023-12-14T03:24:35;49.42;;;14.80;;
80681;SDS011;70045;40.200;44.582;2023-12-14T03:27:00;46.03;;;15.27;;
80681;SDS011;70045;40.200;44.582;2023-12-14T03:29:26;41.45;;;14.05;;
80681;SDS011;70045;40.200;44.582;2023-12-14T03:31:55;45.17;;;15.65;;
80681;SDS011;70045;40.200;44.582;2023-12-14T03:34:21;46.40;;;15.93;;
80681;SDS011;70045;40.200;44.582;2023-12-14T03:36:46;45.88;;;15.48;;
80681;SDS011;70045;40.200;44.582;2023-12-14T03:39:12;37.65;;;13.85;;
80681;SDS011;70045;40.200;44.582;2023-12-14T03:41:37;42.63;;;13.05;;
80681;SDS011;70045;40.200;44.582;2023-12-14T03:44:06;41.15;;;14.23;;
80681;SDS011;70045;40.200;44.582;2023-12-14T03:46:31;41.45;;;15.23;;
80681;SDS011;70045;40.200;44.582;2023-12-14T03:48:56;36.70;;;13.57;;
80681;SDS011;70045;40.200;44.582;2023-12-14T03:51:22;43.03;;;14.63;;
80681;SDS011;70045;40.200;44.582;2023-12-14T03:53:47;44.17;;;15.57;;
80681;SDS011;70045;40.200;44.582;2023-12-14T03:56:15;48.55;;;16.33;;
80681;SDS011;70045;40.200;44.582;2023-12-14T03:58:41;42.53;;;15.85;;
80681;SDS011;70045;40.200;44.582;2023-12-14T04:01:06;46.05;;;16.30;;
80681;SDS011;70045;40.200;44.582;2023-12-14T04:03:32;44.08;;;14.68;;
80681;SDS011;70045;40.200;44.582;2023-12-14T04:05:57;41.30;;;15.15;;
80681;SDS011;70045;40.200;44.582;2023-12-14T04:08:27;47.13;;;16.35;;
80681;SDS011;70045;40.200;44.582;2023-12-14T04:10:53;47.38;;;17.00;;
80681;SDS011;70045;40.200;44.582;2023-12-14T04:13:18;40.78;;;16.20;;
80681;SDS011;70045;40.200;44.582;2023-12-14T04:15:44;39.38;;;14.98;;
80681;SDS011;70045;40.200;44.582;2023-12-14T04:18:09;44.33;;;16.42;;
80681;SDS011;70045;40.200;44.582;2023-12-14T04:20:37;45.65;;;15.65;;
80681;SDS011;70045;40.200;44.582;2023-12-14T04:23:03;50.60;;;17.33;;
80681;SDS011;70045;40.200;44.582;2023-12-14T04:25:28;46.75;;;19.13;;
80681;SDS011;70045;40.200;44.582;2023-12-14T04:27:53;51.08;;;18.73;;
80681;SDS011;70045;40.200;44.582;2023-12-14T04:30:19;54.30;;;22.83;;
80681;SDS011;70045;40.200;44.582;2023-12-14T04:32:47;46.65;;;20.55;;
80681;SDS011;70045;40.200;44.582;2023-12-14T04:35:12;45.42;;;18.98;;
80681;SDS011;70045;40.200;44.582;2023-12-14T04:37:38;50.33;;;20.75;;
80681;SDS011;70045;40.200;44.582;2023-12-14T04:40:03;45.25;;;17.83;;
80681;SDS011;70045;40.200;44.582;2023-12-14T04:42:29;41.78;;;15.25;;
80681;SDS011;70045;40.200;44.582;2023-12-14T04:44:57;43.85;;;16.25;;
80681;SDS011;70045;40.200;44.582;2023-12-14T04:47:23;44.28;;;16.52;;
80681;SDS011;70045;40.200;44.582;2023-12-14T04:49:48;45.17;;;16.73;;
80681;SDS011;70045;40.200;44.582;2023-12-14T04:52:14;41.65;;;17.67;;
80681;SDS011;70045;40.200;44.582;2023-12-14T04:54:39;44.97;;;16.48;;
80681;SDS011;70045;40.200;44.582;2023-12-14T04:57:07;39.38;;;15.10;;
80681;SDS011;70045;40.200;44.582;2023-12-14T04:59:33;45.95;;;17.48;;
80681;SDS011;70045;40.200;44.582;2023-12-14T05:01:58;40.28;;;16.38;;
80681;SDS011;70045;40.200;44.582;2023-12-14T05:04:24;43.17;;;16.45;;
80681;SDS011;70045;40.200;44.582;2023-12-14T05:06:49;44.50;;;17.30;;
80681;SDS011;70045;40.200;44.582;2023-12-14T05:09:17;37.30;;;14.75;;
80681;SDS011;70045;40.200;44.582;2023-12-14T05:11:43;44.17;;;16.52;;
80681;SDS011;70045;40.200;44.582;2023-12-14T05:14:08;43.97;;;16.23;;
80681;SDS011;70045;40.200;44.582;2023-12-14T05:16:34;50.42;;;19.27;;
80681;SDS011;70045;40.200;44.582;2023-12-14T05:18:59;47.30;;;18.73;;
80681;SDS011;70045;40.200;44.582;2023-12-14T05:21:27;42.75;;;16.60;;
80681;SDS011;70045;40.200;44.582;2023-12-14T05:23:53;40.63;;;16.33;;
80681;SDS011;70045;40.200;44.582;2023-12-14T05:26:19;34.25;;;15.13;;
80681;SDS011;70045;40.200;44.582;2023-12-14T05:28:44;31.77;;;12.88;;
80681;SDS011;70045;40.200;44.582;2023-12-14T05:31:10;37.05;;;14.48;;
80681;SDS011;70045;40.200;44.582;2023-12-14T05:33:38;33.88;;;13.55;;
80681;SDS011;70045;40.200;44.582;2023-12-14T05:36:04;32.03;;;12.75;;
80681;SDS011;70045;40.200;44.582;2023-12-14T05:38:31;30.23;;;12.90;;
80681;SDS011;70045;40.200;44.582;2023-12-14T05:40:57;26.50;;;10.68;;
80681;SDS011;70045;40.200;44.582;2023-12-14T05:43:22;28.13;;;11.88;;
80681;SDS011;70045;40.200;44.582;2023-12-14T05:45:50;28.83;;;11.63;;
80681;SDS011;70045;40.200;44.582;2023-12-14T05:48:16;29.23;;;11.05;;
80681;SDS011;70045;40.200;44.582;2023-12-14T05:50:41;27.23;;;10.93;;
80681;SDS011;70045;40.200;44.582;2023-12-14T05:53:06;31.92;;;13.07;;
80681;SDS011;70045;40.200;44.582;2023-12-14T05:55:32;33.80;;;13.02;;
80681;SDS011;70045;40.200;44.582;2023-12-14T05:58:00;33.22;;;12.98;;
80681;SDS011;70045;40.200;44.582;2023-12-14T06:00:25;26.10;;;11.68;;
80681;SDS011;70045;40.200;44.582;2023-12-14T06:02:51;32.95;;;12.90;;
80681;SDS011;70045;40.200;44.582;2023-12-14T06:05:16;32.22;;;12.85;;
80681;SDS011;70045;40.200;44.582;2023-12-14T06:07:42;36.15;;;13.52;;
80681;SDS011;70045;40.200;44.582;2023-12-14T06:10:10;31.10;;;13.38;;
80681;SDS011;70045;40.200;44.582;2023-12-14T06:12:35;28.45;;;11.30;;
80681;SDS011;70045;40.200;44.582;2023-12-14T06:15:01;24.40;;;11.02;;
80681;SDS011;70045;40.200;44.582;2023-12-14T06:17:26;19.17;;;8.95;;
80681;SDS011;70045;40.200;44.582;2023-12-14T06:19:52;25.40;;;8.07;;
80681;SDS011;70045;40.200;44.582;2023-12-14T06:22:20;13.93;;;5.70;;
80681;SDS011;70045;40.200;44.582;2023-12-14T06:24:45;12.30;;;4.90;;
80681;SDS011;70045;40.200;44.582;2023-12-14T06:27:11;8.95;;;4.18;;
80681;SDS011;70045;40.200;44.582;2023-12-14T06:29:36;9.15;;;3.80;;
80681;SDS011;70045;40.200;44.582;2023-12-14T06:32:02;13.98;;;4.93;;
80681;SDS011;70045;40.200;44.582;2023-12-14T06:34:30;16.83;;;6.50;;
80681;SDS011;70045;40.200;44.582;2023-12-14T06:36:56;17.83;;;7.53;;
80681;SDS011;70045;40.200;44.582;2023-12-14T06:39:21;24.10;;;9.50;;
80681;SDS011;70045;40.200;44.582;2023-12-14T06:41:47;20.13;;;8.40;;
80681;SDS011;70045;40.200;44.582;2023-12-14T06:44:12;23.13;;;8.75;;
80681;SDS011;70045;40.200;44.582;2023-12-14T06:46:40;18.33;;;8.05;;
80681;SDS011;70045;40.200;44.582;2023-12-14T06:49:06;20.85;;;9.02;;
80681;SDS011;70045;40.200;44.582;2023-12-14T06:51:31;20.27;;;9.85;;
80681;SDS011;70045;40.200;44.582;2023-12-14T06:53:57;23.90;;;9.75;;
80681;SDS011;70045;40.200;44.582;2023-12-14T06:56:22;22.10;;;8.32;;
80681;SDS011;70045;40.200;44.582;2023-12-14T06:58:50;20.95;;;9.25;;
80681;SDS011;70045;40.200;44.582;2023-12-14T07:01:16;18.23;;;8.63;;
80681;SDS011;70045;40.200;44.582;2023-12-14T07:03:42;19.48;;;8.13;;
80681;SDS011;70045;40.200;44.582;2023-12-14T07:06:11;22.17;;;8.52;;
80681;SDS011;70045;40.200;44.582;2023-12-14T07:08:37;17.17;;;8.02;;
80681;SDS011;70045;40.200;44.582;2023-12-14T07:11:06;18.77;;;8.02;;
80681;SDS011;70045;40.200;44.582;2023-12-14T07:13:32;17.05;;;7.78;;
80681;SDS011;70045;40.200;44.582;2023-12-14T07:15:57;20.30;;;8.38;;
80681;SDS011;70045;40.200;44.582;2023-12-14T07:18:23;19.05;;;8.40;;
80681;SDS011;70045;40.200;44.582;2023-12-14T07:20:48;21.40;;;8.85;;
80681;SDS011;70045;40.200;44.582;2023-12-14T07:23:16;19.58;;;9.10;;
80681;SDS011;70045;40.200;44.582;2023-12-14T07:25:42;22.35;;;9.35;;
80681;SDS011;70045;40.200;44.582;2023-12-14T07:28:08;23.50;;;8.38;;
80681;SDS011;70045;40.200;44.582;2023-12-14T07:30:34;17.95;;;8.15;;
80681;SDS011;70045;40.200;44.582;2023-12-14T07:33:03;21.27;;;9.35;;
80681;SDS011;70045;40.200;44.582;2023-12-14T07:35:31;20.73;;;8.68;;
80681;SDS011;70045;40.200;44.582;2023-12-14T07:37:57;22.63;;;10.25;;
80681;SDS011;70045;40.200;44.582;2023-12-14T07:40:22;21.48;;;10.05;;
80681;SDS011;70045;40.200;44.582;2023-12-14T07:42:47;27.02;;;10.35;;
80681;SDS011;70045;40.200;44.582;2023-12-14T07:45:13;23.85;;;10.32;;
80681;SDS011;70045;40.200;44.582;2023-12-14T07:47:41;24.75;;;10.10;;
80681;SDS011;70045;40.200;44.582;2023-12-14T07:50:07;24.15;;;9.68;;
80681;SDS011;70045;40.200;44.582;2023-12-14T07:52:32;20.08;;;9.45;;
80681;SDS011;70045;40.200;44.582;2023-12-14T07:54:58;22.73;;;9.32;;
80681;SDS011;70045;40.200;44.582;2023-12-14T07:57:23;27.33;;;11.30;;
80681;SDS011;70045;40.200;44.582;2023-12-14T07:59:51;20.15;;;8.88;;
80681;SDS011;70045;40.200;44.582;2023-12-14T08:02:19;19.27;;;7.75;;
80681;SDS011;70045;40.200;44.582;2023-12-14T08:04:45;20.27;;;8.82;;
80681;SDS011;70045;40.200;44.582;2023-12-14T08:07:10;17.73;;;8.00;;
80681;SDS011;70045;40.200;44.582;2023-12-14T08:09:35;19.90;;;8.05;;
80681;SDS011;70045;40.200;44.582;2023-12-14T08:12:04;18.60;;;7.57;;
80681;SDS011;70045;40.200;44.582;2023-12-14T08:14:31;18.55;;;8.20;;
80681;SDS011;70045;40.200;44.582;2023-12-14T08:16:57;18.48;;;7.40;;
80681;SDS011;70045;40.200;44.582;2023-12-14T08:19:23;19.60;;;7.95;;
80681;SDS011;70045;40.200;44.582;2023-12-14T08:21:48;19.90;;;9.10;;
80681;SDS011;70045;40.200;44.582;2023-12-14T08:24:16;16.50;;;7.43;;
80681;SDS011;70045;40.200;44.582;2023-12-14T08:26:42;17.48;;;8.38;;
80681;SDS011;70045;40.200;44.582;2023-12-14T08:29:07;23.15;;;10.43;;
80681;SDS011;70045;40.200;44.582;2023-12-14T08:31:34;21.35;;;9.38;;
80681;SDS011;70045;40.200;44.582;2023-12-14T08:34:00;27.33;;;10.45;;
80681;SDS011;70045;40.200;44.582;2023-12-14T08:36:29;22.98;;;10.10;;
80681;SDS011;70045;40.200;44.582;2023-12-14T08:38:54;24.67;;;10.07;;
80681;SDS011;70045;40.200;44.582;2023-12-14T08:41:20;22.27;;;10.48;;
80681;SDS011;70045;40.200;44.582;2023-12-14T08:43:45;20.48;;;9.65;;
80681;SDS011;70045;40.200;44.582;2023-12-14T08:46:12;21.35;;;8.80;;
80681;SDS011;70045;40.200;44.582;2023-12-14T08:48:40;24.17;;;11.30;;
80681;SDS011;70045;40.200;44.582;2023-12-14T08:51:06;21.10;;;9.70;;
80681;SDS011;70045;40.200;44.582;2023-12-14T08:53:31;19.30;;;9.15;;
80681;SDS011;70045;40.200;44.582;2023-12-14T08:55:57;27.58;;;11.98;;
80681;SDS011;70045;40.200;44.582;2023-12-14T08:58:22;20.65;;;9.40;;
80681;SDS011;70045;40.200;44.582;2023-12-14T09:00:51;22.55;;;10.57;;
80681;SDS011;70045;40.200;44.582;2023-12-14T09:03:16;27.73;;;11.88;;
80681;SDS011;70045;40.200;44.582;2023-12-14T09:05:41;27.52;;;12.18;;
80681;SDS011;70045;40.200;44.582;2023-12-14T09:08:07;30.48;;;12.82;;
80681;SDS011;70045;40.200;44.582;2023-12-14T09:10:33;37.63;;;13.85;;
80681;SDS011;70045;40.200;44.582;2023-12-14T09:13:01;27.98;;;13.20;;
80681;SDS011;70045;40.200;44.582;2023-12-14T09:15:26;36.05;;;17.05;;
80681;SDS011;70045;40.200;44.582;2023-12-14T09:17:52;44.50;;;21.67;;
80681;SDS011;70045;40.200;44.582;2023-12-14T09:20:17;37.20;;;17.50;;
80681;SDS011;70045;40.200;44.582;2023-12-14T09:22:42;38.90;;;17.70;;
80681;SDS011;70045;40.200;44.582;2023-12-14T09:25:11;41.67;;;20.00;;
80681;SDS011;70045;40.200;44.582;2023-12-14T09:27:36;41.90;;;18.77;;
80681;SDS011;70045;40.200;44.582;2023-12-14T09:30:02;52.60;;;22.65;;
80681;SDS011;70045;40.200;44.582;2023-12-14T09:32:27;51.85;;;24.10;;
80681;SDS011;70045;40.200;44.582;2023-12-14T09:34:53;57.65;;;24.77;;
80681;SDS011;70045;40.200;44.582;2023-12-14T09:37:21;60.03;;;26.60;;
80681;SDS011;70045;40.200;44.582;2023-12-14T09:39:46;49.92;;;22.63;;
80681;SDS011;70045;40.200;44.582;2023-12-14T09:42:12;45.00;;;20.67;;
80681;SDS011;70045;40.200;44.582;2023-12-14T09:44:42;38.25;;;16.45;;
80681;SDS011;70045;40.200;44.582;2023-12-14T09:47:08;45.25;;;17.40;;
80681;SDS011;70045;40.200;44.582;2023-12-14T09:49:37;45.08;;;20.05;;
80681;SDS011;70045;40.200;44.582;2023-12-14T09:52:04;34.67;;;14.30;;
80681;SDS011;70045;40.200;44.582;2023-12-14T09:54:29;34.78;;;15.20;;
80681;SDS011;70045;40.200;44.582;2023-12-14T09:56:54;34.20;;;14.68;;
80681;SDS011;70045;40.200;44.582;2023-12-14T09:59:20;32.20;;;14.77;;
80681;SDS011;70045;40.200;44.582;2023-12-14T10:01:49;36.97;;;16.20;;
80681;SDS011;70045;40.200;44.582;2023-12-14T10:04:15;34.40;;;16.20;;
80681;SDS011;70045;40.200;44.582;2023-12-14T10:06:43;34.28;;;14.82;;
80681;SDS011;70045;40.200;44.582;2023-12-14T10:09:10;30.35;;;13.48;;
80681;SDS011;70045;40.200;44.582;2023-12-14T10:11:36;28.83;;;12.35;;
80681;SDS011;70045;40.200;44.582;2023-12-14T10:14:21;25.83;;;11.45;;
80681;SDS011;70045;40.200;44.582;2023-12-14T10:16:48;27.25;;;11.38;;
80681;SDS011;70045;40.200;44.582;2023-12-14T10:19:14;29.27;;;11.32;;
80681;SDS011;70045;40.200;44.582;2023-12-14T10:21:42;23.02;;;10.23;;
80681;SDS011;70045;40.200;44.582;2023-12-14T10:24:10;31.83;;;10.23;;
80681;SDS011;70045;40.200;44.582;2023-12-14T10:26:36;28.05;;;10.25;;
80681;SDS011;70045;40.200;44.582;2023-12-14T10:29:01;22.48;;;8.73;;
80681;SDS011;70045;40.200;44.582;2023-12-14T10:31:27;22.02;;;7.82;;
80681;SDS011;70045;40.200;44.582;2023-12-14T10:33:53;20.95;;;7.57;;
80681;SDS011;70045;40.200;44.582;2023-12-14T10:36:22;17.38;;;7.78;;
80681;SDS011;70045;40.200;44.582;2023-12-14T10:38:53;17.52;;;7.47;;
80681;SDS011;70045;40.200;44.582;2023-12-14T10:41:21;23.58;;;7.97;;
80681;SDS011;70045;40.200;44.582;2023-12-14T10:43:47;20.35;;;8.05;;
80681;SDS011;70045;40.200;44.582;2023-12-14T10:46:13;17.88;;;7.68;;
80681;SDS011;70045;40.200;44.582;2023-12-14T10:48:43;19.10;;;7.68;;
80681;SDS011;70045;40.200;44.582;2023-12-14T10:51:12;20.08;;;7.57;;
80681;SDS011;70045;40.200;44.582;2023-12-14T10:53:39;22.88;;;8.20;;
80681;SDS011;70045;40.200;44.582;2023-12-14T10:56:05;21.42;;;7.80;;
80681;SDS011;70045;40.200;44.582;2023-12-14T11:01:16;17.67;;;7.45;;
80681;SDS011;70045;40.200;44.582;2023-12-14T11:03:46;20.88;;;7.32;;
80681;SDS011;70045;40.200;44.582;2023-12-14T11:08:53;16.13;;;6.82;;
80681;SDS011;70045;40.200;44.582;2023-12-14T11:14:18;12.50;;;6.00;;
80681;SDS011;70045;40.200;44.582;2023-12-14T11:16:43;16.33;;;6.95;;
80681;SDS011;70045;40.200;44.582;2023-12-14T11:21:47;20.23;;;7.38;;
80681;SDS011;70045;40.200;44.582;2023-12-14T11:24:18;17.35;;;7.38;;
80681;SDS011;70045;40.200;44.582;2023-12-14T11:26:44;19.10;;;7.50;;
80681;SDS011;70045;40.200;44.582;2023-12-14T11:29:09;15.98;;;7.25;;
80681;SDS011;70045;40.200;44.582;2023-12-14T11:31:37;17.65;;;7.38;;
80681;SDS011;70045;40.200;44.582;2023-12-14T11:34:05;16.58;;;7.15;;
80681;SDS011;70045;40.200;44.582;2023-12-14T11:36:30;16.55;;;6.43;;
80681;SDS011;70045;40.200;44.582;2023-12-14T11:38:56;22.20;;;7.20;;
80681;SDS011;70045;40.200;44.582;2023-12-14T11:41:21;17.52;;;7.05;;
80681;SDS011;70045;40.200;44.582;2023-12-14T11:43:50;20.52;;;8.93;;
80681;SDS011;70045;40.200;44.582;2023-12-14T11:46:16;16.00;;;7.10;;
80681;SDS011;70045;40.200;44.582;2023-12-14T11:48:45;13.25;;;5.97;;
80681;SDS011;70045;40.200;44.582;2023-12-14T11:51:11;17.38;;;7.07;;
80681;SDS011;70045;40.200;44.582;2023-12-14T11:53:37;15.70;;;6.68;;
80681;SDS011;70045;40.200;44.582;2023-12-14T11:56:05;14.52;;;6.35;;
80681;SDS011;70045;40.200;44.582;2023-12-14T11:58:31;17.73;;;7.03;;
80681;SDS011;70045;40.200;44.582;2023-12-14T12:01:09;18.25;;;7.55;;
80681;SDS011;70045;40.200;44.582;2023-12-14T12:03:41;17.83;;;7.40;;
80681;SDS011;70045;40.200;44.582;2023-12-14T12:06:23;16.45;;;7.80;;
80681;SDS011;70045;40.200;44.582;2023-12-14T12:08:50;20.75;;;9.52;;
80681;SDS011;70045;40.200;44.582;2023-12-14T12:11:20;25.02;;;8.77;;
80681;SDS011;70045;40.200;44.582;2023-12-14T12:13:53;23.65;;;9.30;;
80681;SDS011;70045;40.200;44.582;2023-12-14T12:16:23;28.67;;;9.90;;
80681;SDS011;70045;40.200;44.582;2023-12-14T12:18:49;24.42;;;9.95;;
80681;SDS011;70045;40.200;44.582;2023-12-14T12:21:14;25.27;;;10.80;;
80681;SDS011;70045;40.200;44.582;2023-12-14T12:23:40;23.58;;;10.27;;
80681;SDS011;70045;40.200;44.582;2023-12-14T12:26:06;23.00;;;10.20;;
80681;SDS011;70045;40.200;44.582;2023-12-14T12:28:34;25.70;;;10.45;;
80681;SDS011;70045;40.200;44.582;2023-12-14T12:30:59;21.05;;;8.98;;
80681;SDS011;70045;40.200;44.582;2023-12-14T12:33:25;26.23;;;9.50;;
80681;SDS011;70045;40.200;44.582;2023-12-14T12:35:51;23.05;;;9.15;;
80681;SDS011;70045;40.200;44.582;2023-12-14T12:38:17;24.40;;;9.07;;
80681;SDS011;70045;40.200;44.582;2023-12-14T12:40:45;22.52;;;9.18;;
80681;SDS011;70045;40.200;44.582;2023-12-14T12:43:12;20.45;;;8.63;;
80681;SDS011;70045;40.200;44.582;2023-12-14T12:45:41;22.42;;;9.05;;
80681;SDS011;70045;40.200;44.582;2023-12-14T12:48:06;19.27;;;8.80;;
80681;SDS011;70045;40.200;44.582;2023-12-14T12:50:32;20.17;;;8.30;;
80681;SDS011;70045;40.200;44.582;2023-12-14T12:53:01;19.40;;;8.32;;
80681;SDS011;70045;40.200;44.582;2023-12-14T12:55:26;25.08;;;9.15;;
80681;SDS011;70045;40.200;44.582;2023-12-14T12:57:52;21.10;;;9.55;;
80681;SDS011;70045;40.200;44.582;2023-12-14T13:00:17;20.38;;;8.90;;
80681;SDS011;70045;40.200;44.582;2023-12-14T13:02:43;23.20;;;9.82;;
80681;SDS011;70045;40.200;44.582;2023-12-14T13:05:12;25.45;;;9.30;;
80681;SDS011;70045;40.200;44.582;2023-12-14T13:07:38;23.17;;;9.60;;
80681;SDS011;70045;40.200;44.582;2023-12-14T13:10:07;21.73;;;9.02;;
80681;SDS011;70045;40.200;44.582;2023-12-14T13:12:32;23.30;;;8.80;;
80681;SDS011;70045;40.200;44.582;2023-12-14T13:14:58;23.73;;;9.15;;
80681;SDS011;70045;40.200;44.582;2023-12-14T13:17:27;20.42;;;8.80;;
80681;SDS011;70045;40.200;44.582;2023-12-14T13:19:52;18.83;;;7.78;;
80681;SDS011;70045;40.200;44.582;2023-12-14T13:22:18;18.60;;;7.65;;
80681;SDS011;70045;40.200;44.582;2023-12-14T13:24:44;19.58;;;7.95;;
80681;SDS011;70045;40.200;44.582;2023-12-14T13:27:10;19.15;;;7.32;;
80681;SDS011;70045;40.200;44.582;2023-12-14T13:29:38;22.55;;;8.68;;
80681;SDS011;70045;40.200;44.582;2023-12-14T13:32:04;22.65;;;7.95;;
80681;SDS011;70045;40.200;44.582;2023-12-14T13:34:29;20.63;;;8.23;;
80681;SDS011;70045;40.200;44.582;2023-12-14T13:36:55;22.98;;;8.73;;
80681;SDS011;70045;40.200;44.582;2023-12-14T13:39:21;19.33;;;6.80;;
80681;SDS011;70045;40.200;44.582;2023-12-14T13:41:49;16.73;;;7.15;;
80681;SDS011;70045;40.200;44.582;2023-12-14T13:44:15;18.63;;;6.72;;
80681;SDS011;70045;40.200;44.582;2023-12-14T13:46:40;18.05;;;7.05;;
80681;SDS011;70045;40.200;44.582;2023-12-14T13:49:06;20.83;;;8.05;;
80681;SDS011;70045;40.200;44.582;2023-12-14T13:51:34;25.48;;;9.00;;
80681;SDS011;70045;40.200;44.582;2023-12-14T13:54:02;21.17;;;8.88;;
80681;SDS011;70045;40.200;44.582;2023-12-14T13:56:28;25.02;;;9.70;;
80681;SDS011;70045;40.200;44.582;2023-12-14T13:58:53;20.45;;;7.93;;
80681;SDS011;70045;40.200;44.582;2023-12-14T14:01:19;21.63;;;8.77;;
80681;SDS011;70045;40.200;44.582;2023-12-14T14:03:44;20.88;;;9.77;;
80681;SDS011;70045;40.200;44.582;2023-12-14T14:06:13;31.20;;;10.18;;
80681;SDS011;70045;40.200;44.582;2023-12-14T14:08:38;34.92;;;11.68;;
80681;SDS011;70045;40.200;44.582;2023-12-14T14:11:04;34.05;;;14.15;;
80681;SDS011;70045;40.200;44.582;2023-12-14T14:13:29;33.78;;;13.93;;
80681;SDS011;70045;40.200;44.582;2023-12-14T14:15:55;36.55;;;13.15;;
80681;SDS011;70045;40.200;44.582;2023-12-14T14:18:23;29.05;;;11.60;;
80681;SDS011;70045;40.200;44.582;2023-12-14T14:20:48;30.58;;;13.10;;
80681;SDS011;70045;40.200;44.582;2023-12-14T14:23:14;40.67;;;16.38;;
80681;SDS011;70045;40.200;44.582;2023-12-14T14:25:39;40.97;;;14.40;;